sensor_id;sensor_type;location;lat;lon;timestamp;P1;durP1;ratioP1;P2;durP2;ratioP2
17586;SDS011;8912;52.336;17.172;2022-10-16T00:01:48;41.30;;;29.57;;
17586;SDS011;8912;52.336;17.172;2022-10-16T00:04:19;40.13;;;29.67;;
17586;SDS011;8912;52.336;17.172;2022-10-16T00:06:47;38.63;;;29.07;;
17586;SDS011;8912;52.336;17.172;2022-10-16T00:09:18;40.37;;;29.30;;
17586;SDS011;8912;52.336;17.172;2022-10-16T00:11:47;39.47;;;29.10;;
17586;SDS011;8912;52.336;17.172;2022-10-16T00:14:16;40.23;;;28.63;;
17586;SDS011;8912;52.336;17.172;2022-10-16T00:16:45;37.03;;;28.70;;
17586;SDS011;8912;52.336;17.172;2022-10-16T00:19:15;37.17;;;28.07;;
17586;SDS011;8912;52.336;17.172;2022-10-16T00:21:45;37.63;;;28.67;;
17586;SDS011;8912;52.336;17.172;2022-10-16T00:24:14;39.20;;;28.63;;
17586;SDS011;8912;52.336;17.172;2022-10-16T00:26:44;40.80;;;28.23;;
17586;SDS011;8912;52.336;17.172;2022-10-16T00:29:13;37.50;;;27.83;;
17586;SDS011;8912;52.336;17.172;2022-10-16T00:31:42;36.27;;;27.70;;
17586;SDS011;8912;52.336;17.172;2022-10-16T00:34:11;36.53;;;28.63;;
17586;SDS011;8912;52.336;17.172;2022-10-16T00:36:40;36.23;;;27.87;;
17586;SDS011;8912;52.336;17.172;2022-10-16T00:39:09;36.90;;;26.97;;
17586;SDS011;8912;52.336;17.172;2022-10-16T00:41:39;33.47;;;24.13;;
17586;SDS011;8912;52.336;17.172;2022-10-16T00:47:11;29.80;;;24.40;;
17586;SDS011;8912;52.336;17.172;2022-10-16T00:49:46;32.00;;;24.87;;
17586;SDS011;8912;52.336;17.172;2022-10-16T00:52:20;32.73;;;25.43;;
17586;SDS011;8912;52.336;17.172;2022-10-16T00:54:52;33.47;;;25.37;;
17586;SDS011;8912;52.336;17.172;2022-10-16T00:57:27;32.80;;;24.77;;
17586;SDS011;8912;52.336;17.172;2022-10-16T00:59:56;33.33;;;25.47;;
17586;SDS011;8912;52.336;17.172;2022-10-16T01:02:27;32.80;;;24.87;;
17586;SDS011;8912;52.336;17.172;2022-10-16T01:04:56;31.37;;;23.97;;
17586;SDS011;8912;52.336;17.172;2022-10-16T01:07:30;32.67;;;26.23;;
17586;SDS011;8912;52.336;17.172;2022-10-16T01:10:12;31.07;;;24.80;;
17586;SDS011;8912;52.336;17.172;2022-10-16T01:12:49;30.63;;;23.93;;
17586;SDS011;8912;52.336;17.172;2022-10-16T01:15:25;29.07;;;23.77;;
17586;SDS011;8912;52.336;17.172;2022-10-16T01:18:03;29.47;;;23.90;;
17586;SDS011;8912;52.336;17.172;2022-10-16T01:20:40;30.70;;;24.40;;
17586;SDS011;8912;52.336;17.172;2022-10-16T01:23:16;31.53;;;24.60;;
17586;SDS011;8912;52.336;17.172;2022-10-16T01:25:56;28.47;;;23.60;;
17586;SDS011;8912;52.336;17.172;2022-10-16T01:28:38;30.00;;;24.13;;
17586;SDS011;8912;52.336;17.172;2022-10-16T01:31:14;28.33;;;23.97;;
17586;SDS011;8912;52.336;17.172;2022-10-16T01:33:50;32.47;;;23.97;;
17586;SDS011;8912;52.336;17.172;2022-10-16T01:36:26;29.80;;;24.13;;
17586;SDS011;8912;52.336;17.172;2022-10-16T01:39:00;32.00;;;24.33;;
17586;SDS011;8912;52.336;17.172;2022-10-16T01:41:30;30.30;;;23.57;;
17586;SDS011;8912;52.336;17.172;2022-10-16T01:44:04;29.07;;;22.73;;
17586;SDS011;8912;52.336;17.172;2022-10-16T01:46:35;27.87;;;22.50;;
17586;SDS011;8912;52.336;17.172;2022-10-16T01:49:06;30.07;;;23.60;;
17586;SDS011;8912;52.336;17.172;2022-10-16T01:51:37;30.57;;;24.00;;
17586;SDS011;8912;52.336;17.172;2022-10-16T01:54:08;29.23;;;22.97;;
17586;SDS011;8912;52.336;17.172;2022-10-16T01:56:39;29.23;;;21.67;;
17586;SDS011;8912;52.336;17.172;2022-10-16T01:59:11;27.13;;;21.80;;
17586;SDS011;8912;52.336;17.172;2022-10-16T02:01:44;28.07;;;23.03;;
17586;SDS011;8912;52.336;17.172;2022-10-16T02:04:17;28.93;;;22.37;;
17586;SDS011;8912;52.336;17.172;2022-10-16T02:06:49;30.60;;;22.73;;
17586;SDS011;8912;52.336;17.172;2022-10-16T02:09:18;29.10;;;23.33;;
17586;SDS011;8912;52.336;17.172;2022-10-16T02:11:47;29.17;;;22.97;;
17586;SDS011;8912;52.336;17.172;2022-10-16T02:14:20;29.53;;;23.23;;
17586;SDS011;8912;52.336;17.172;2022-10-16T02:16:51;29.50;;;22.37;;
17586;SDS011;8912;52.336;17.172;2022-10-16T02:19:20;32.20;;;23.13;;
17586;SDS011;8912;52.336;17.172;2022-10-16T02:21:51;27.33;;;22.13;;
17586;SDS011;8912;52.336;17.172;2022-10-16T02:24:26;27.17;;;22.07;;
17586;SDS011;8912;52.336;17.172;2022-10-16T02:27:01;29.40;;;23.57;;
17586;SDS011;8912;52.336;17.172;2022-10-16T02:29:38;29.07;;;22.73;;
17586;SDS011;8912;52.336;17.172;2022-10-16T02:32:11;30.30;;;23.13;;
17586;SDS011;8912;52.336;17.172;2022-10-16T02:34:43;26.70;;;22.47;;
17586;SDS011;8912;52.336;17.172;2022-10-16T02:37:13;30.07;;;23.53;;
17586;SDS011;8912;52.336;17.172;2022-10-16T02:39:44;28.63;;;22.43;;
17586;SDS011;8912;52.336;17.172;2022-10-16T02:42:14;27.00;;;22.57;;
17586;SDS011;8912;52.336;17.172;2022-10-16T02:44:45;29.90;;;23.43;;
17586;SDS011;8912;52.336;17.172;2022-10-16T02:47:14;28.57;;;23.03;;
17586;SDS011;8912;52.336;17.172;2022-10-16T02:49:42;28.37;;;22.93;;
17586;SDS011;8912;52.336;17.172;2022-10-16T02:52:11;29.90;;;24.03;;
17586;SDS011;8912;52.336;17.172;2022-10-16T02:54:40;29.93;;;24.10;;
17586;SDS011;8912;52.336;17.172;2022-10-16T02:57:09;31.40;;;24.13;;
17586;SDS011;8912;52.336;17.172;2022-10-16T02:59:38;32.03;;;24.57;;
17586;SDS011;8912;52.336;17.172;2022-10-16T03:02:09;30.17;;;23.70;;
17586;SDS011;8912;52.336;17.172;2022-10-16T03:04:38;32.37;;;24.90;;
17586;SDS011;8912;52.336;17.172;2022-10-16T03:07:07;30.47;;;24.43;;
17586;SDS011;8912;52.336;17.172;2022-10-16T03:09:36;30.07;;;23.33;;
17586;SDS011;8912;52.336;17.172;2022-10-16T03:12:05;31.93;;;23.97;;
17586;SDS011;8912;52.336;17.172;2022-10-16T03:14:33;29.50;;;23.87;;
17586;SDS011;8912;52.336;17.172;2022-10-16T03:17:02;30.80;;;23.73;;
17586;SDS011;8912;52.336;17.172;2022-10-16T03:19:32;30.33;;;24.70;;
17586;SDS011;8912;52.336;17.172;2022-10-16T03:22:01;31.70;;;24.33;;
17586;SDS011;8912;52.336;17.172;2022-10-16T03:24:30;30.90;;;24.23;;
17586;SDS011;8912;52.336;17.172;2022-10-16T03:26:58;34.37;;;24.60;;
17586;SDS011;8912;52.336;17.172;2022-10-16T03:29:27;28.93;;;23.70;;
17586;SDS011;8912;52.336;17.172;2022-10-16T03:31:56;30.93;;;24.50;;
17586;SDS011;8912;52.336;17.172;2022-10-16T03:34:24;30.30;;;24.47;;
17586;SDS011;8912;52.336;17.172;2022-10-16T03:36:55;33.63;;;25.30;;
17586;SDS011;8912;52.336;17.172;2022-10-16T03:39:23;31.27;;;25.07;;
17586;SDS011;8912;52.336;17.172;2022-10-16T03:41:52;32.30;;;25.50;;
17586;SDS011;8912;52.336;17.172;2022-10-16T03:44:21;31.23;;;24.93;;
17586;SDS011;8912;52.336;17.172;2022-10-16T03:46:49;31.63;;;25.30;;
17586;SDS011;8912;52.336;17.172;2022-10-16T03:49:18;32.43;;;26.17;;
17586;SDS011;8912;52.336;17.172;2022-10-16T03:51:46;32.73;;;25.20;;
17586;SDS011;8912;52.336;17.172;2022-10-16T03:54:16;33.00;;;25.83;;
17586;SDS011;8912;52.336;17.172;2022-10-16T03:56:45;32.03;;;25.43;;
17586;SDS011;8912;52.336;17.172;2022-10-16T03:59:13;33.10;;;25.50;;
17586;SDS011;8912;52.336;17.172;2022-10-16T04:01:42;33.57;;;27.03;;
17586;SDS011;8912;52.336;17.172;2022-10-16T04:04:10;34.13;;;27.10;;
17586;SDS011;8912;52.336;17.172;2022-10-16T04:06:39;34.63;;;27.03;;
17586;SDS011;8912;52.336;17.172;2022-10-16T04:09:07;33.97;;;27.20;;
17586;SDS011;8912;52.336;17.172;2022-10-16T04:11:37;35.50;;;28.03;;
17586;SDS011;8912;52.336;17.172;2022-10-16T04:14:06;35.47;;;27.47;;
17586;SDS011;8912;52.336;17.172;2022-10-16T04:16:35;32.33;;;26.83;;
17586;SDS011;8912;52.336;17.172;2022-10-16T04:19:04;33.27;;;26.77;;
17586;SDS011;8912;52.336;17.172;2022-10-16T04:21:32;33.23;;;26.93;;
17586;SDS011;8912;52.336;17.172;2022-10-16T04:24:01;35.93;;;27.20;;
17586;SDS011;8912;52.336;17.172;2022-10-16T04:26:29;42.53;;;33.53;;
17586;SDS011;8912;52.336;17.172;2022-10-16T04:28:59;33.13;;;27.27;;
17586;SDS011;8912;52.336;17.172;2022-10-16T04:31:28;32.87;;;27.40;;
17586;SDS011;8912;52.336;17.172;2022-10-16T04:33:56;32.07;;;26.57;;
17586;SDS011;8912;52.336;17.172;2022-10-16T04:36:25;30.43;;;26.83;;
17586;SDS011;8912;52.336;17.172;2022-10-16T04:38:55;31.37;;;26.97;;
17586;SDS011;8912;52.336;17.172;2022-10-16T04:41:23;30.47;;;27.03;;
17586;SDS011;8912;52.336;17.172;2022-10-16T04:43:52;30.90;;;25.73;;
17586;SDS011;8912;52.336;17.172;2022-10-16T04:46:22;32.97;;;26.37;;
17586;SDS011;8912;52.336;17.172;2022-10-16T04:48:50;30.70;;;25.97;;
17586;SDS011;8912;52.336;17.172;2022-10-16T04:51:19;30.70;;;26.23;;
17586;SDS011;8912;52.336;17.172;2022-10-16T04:53:47;32.90;;;27.27;;
17586;SDS011;8912;52.336;17.172;2022-10-16T04:56:16;35.80;;;28.13;;
17586;SDS011;8912;52.336;17.172;2022-10-16T04:58:44;31.80;;;26.43;;
17586;SDS011;8912;52.336;17.172;2022-10-16T05:01:13;33.67;;;26.40;;
17586;SDS011;8912;52.336;17.172;2022-10-16T05:03:43;29.70;;;24.47;;
17586;SDS011;8912;52.336;17.172;2022-10-16T05:06:11;31.93;;;25.57;;
17586;SDS011;8912;52.336;17.172;2022-10-16T05:08:40;30.83;;;24.67;;
17586;SDS011;8912;52.336;17.172;2022-10-16T05:11:08;31.10;;;25.63;;
17586;SDS011;8912;52.336;17.172;2022-10-16T05:13:37;30.60;;;23.93;;
17586;SDS011;8912;52.336;17.172;2022-10-16T05:16:06;30.03;;;23.83;;
17586;SDS011;8912;52.336;17.172;2022-10-16T05:18:34;28.60;;;23.93;;
17586;SDS011;8912;52.336;17.172;2022-10-16T05:21:04;29.23;;;22.80;;
17586;SDS011;8912;52.336;17.172;2022-10-16T05:23:33;28.20;;;23.23;;
17586;SDS011;8912;52.336;17.172;2022-10-16T05:26:02;28.37;;;22.63;;
17586;SDS011;8912;52.336;17.172;2022-10-16T05:28:30;27.83;;;23.27;;
17586;SDS011;8912;52.336;17.172;2022-10-16T05:31:03;31.27;;;22.63;;
17586;SDS011;8912;52.336;17.172;2022-10-16T05:33:32;28.77;;;23.13;;
17586;SDS011;8912;52.336;17.172;2022-10-16T05:36:01;29.53;;;23.80;;
17586;SDS011;8912;52.336;17.172;2022-10-16T05:38:31;32.67;;;26.53;;
17586;SDS011;8912;52.336;17.172;2022-10-16T05:40:59;32.50;;;26.73;;
17586;SDS011;8912;52.336;17.172;2022-10-16T05:43:28;31.23;;;24.93;;
17586;SDS011;8912;52.336;17.172;2022-10-16T05:45:57;29.67;;;24.03;;
17586;SDS011;8912;52.336;17.172;2022-10-16T05:48:28;30.47;;;24.70;;
17586;SDS011;8912;52.336;17.172;2022-10-16T05:50:58;32.37;;;24.90;;
17586;SDS011;8912;52.336;17.172;2022-10-16T05:53:27;37.03;;;26.53;;
17586;SDS011;8912;52.336;17.172;2022-10-16T05:55:58;31.53;;;26.17;;
17586;SDS011;8912;52.336;17.172;2022-10-16T05:58:28;34.53;;;26.27;;
17586;SDS011;8912;52.336;17.172;2022-10-16T06:00:59;31.00;;;26.10;;
17586;SDS011;8912;52.336;17.172;2022-10-16T06:03:29;32.97;;;26.67;;
17586;SDS011;8912;52.336;17.172;2022-10-16T06:06:06;35.73;;;25.77;;
17586;SDS011;8912;52.336;17.172;2022-10-16T06:08:38;27.93;;;24.27;;
17586;SDS011;8912;52.336;17.172;2022-10-16T06:11:11;29.30;;;26.00;;
17586;SDS011;8912;52.336;17.172;2022-10-16T06:13:41;29.03;;;25.20;;
17586;SDS011;8912;52.336;17.172;2022-10-16T06:16:10;27.60;;;24.17;;
17586;SDS011;8912;52.336;17.172;2022-10-16T06:18:40;27.03;;;23.47;;
17586;SDS011;8912;52.336;17.172;2022-10-16T06:21:09;26.73;;;23.43;;
17586;SDS011;8912;52.336;17.172;2022-10-16T06:23:39;29.10;;;23.77;;
17586;SDS011;8912;52.336;17.172;2022-10-16T06:26:15;25.33;;;22.53;;
17586;SDS011;8912;52.336;17.172;2022-10-16T06:28:48;26.63;;;22.43;;
17586;SDS011;8912;52.336;17.172;2022-10-16T06:31:18;23.30;;;20.73;;
17586;SDS011;8912;52.336;17.172;2022-10-16T06:33:50;23.33;;;20.77;;
17586;SDS011;8912;52.336;17.172;2022-10-16T06:36:20;22.63;;;19.60;;
17586;SDS011;8912;52.336;17.172;2022-10-16T06:38:49;20.03;;;17.87;;
17586;SDS011;8912;52.336;17.172;2022-10-16T06:41:20;19.03;;;17.03;;
17586;SDS011;8912;52.336;17.172;2022-10-16T06:43:50;18.50;;;16.57;;
17586;SDS011;8912;52.336;17.172;2022-10-16T06:46:21;19.97;;;16.57;;
17586;SDS011;8912;52.336;17.172;2022-10-16T06:48:51;17.70;;;15.80;;
17586;SDS011;8912;52.336;17.172;2022-10-16T06:51:20;17.30;;;15.40;;
17586;SDS011;8912;52.336;17.172;2022-10-16T06:53:51;17.13;;;15.23;;
17586;SDS011;8912;52.336;17.172;2022-10-16T06:56:32;18.97;;;14.80;;
17586;SDS011;8912;52.336;17.172;2022-10-16T06:59:03;16.57;;;14.83;;
17586;SDS011;8912;52.336;17.172;2022-10-16T07:01:32;16.90;;;15.10;;
17586;SDS011;8912;52.336;17.172;2022-10-16T07:04:02;17.17;;;15.10;;
17586;SDS011;8912;52.336;17.172;2022-10-16T07:06:33;15.50;;;13.97;;
17586;SDS011;8912;52.336;17.172;2022-10-16T07:09:04;16.73;;;14.90;;
17586;SDS011;8912;52.336;17.172;2022-10-16T07:11:35;15.63;;;14.03;;
17586;SDS011;8912;52.336;17.172;2022-10-16T07:14:08;17.03;;;13.53;;
17586;SDS011;8912;52.336;17.172;2022-10-16T07:16:42;15.87;;;14.27;;
17586;SDS011;8912;52.336;17.172;2022-10-16T07:19:11;15.03;;;13.47;;
17586;SDS011;8912;52.336;17.172;2022-10-16T07:21:42;15.50;;;13.90;;
17586;SDS011;8912;52.336;17.172;2022-10-16T07:24:13;14.90;;;13.40;;
17586;SDS011;8912;52.336;17.172;2022-10-16T07:26:45;14.63;;;13.13;;
17586;SDS011;8912;52.336;17.172;2022-10-16T07:29:17;15.23;;;13.77;;
17586;SDS011;8912;52.336;17.172;2022-10-16T07:31:47;15.47;;;13.97;;
17586;SDS011;8912;52.336;17.172;2022-10-16T07:34:17;16.17;;;14.00;;
17586;SDS011;8912;52.336;17.172;2022-10-16T07:36:48;15.17;;;13.67;;
17586;SDS011;8912;52.336;17.172;2022-10-16T07:39:17;16.07;;;14.37;;
17586;SDS011;8912;52.336;17.172;2022-10-16T07:41:50;14.67;;;13.17;;
17586;SDS011;8912;52.336;17.172;2022-10-16T07:44:19;14.90;;;13.30;;
17586;SDS011;8912;52.336;17.172;2022-10-16T07:46:47;16.47;;;14.77;;
17586;SDS011;8912;52.336;17.172;2022-10-16T07:49:19;15.93;;;14.37;;
17586;SDS011;8912;52.336;17.172;2022-10-16T07:51:48;14.33;;;12.93;;
17586;SDS011;8912;52.336;17.172;2022-10-16T07:54:17;16.10;;;14.40;;
17586;SDS011;8912;52.336;17.172;2022-10-16T07:56:46;14.63;;;13.20;;
17586;SDS011;8912;52.336;17.172;2022-10-16T07:59:17;14.63;;;13.10;;
17586;SDS011;8912;52.336;17.172;2022-10-16T08:01:46;14.07;;;12.63;;
17586;SDS011;8912;52.336;17.172;2022-10-16T08:04:17;13.93;;;12.63;;
17586;SDS011;8912;52.336;17.172;2022-10-16T08:06:45;14.97;;;13.43;;
17586;SDS011;8912;52.336;17.172;2022-10-16T08:09:14;13.17;;;11.87;;
17586;SDS011;8912;52.336;17.172;2022-10-16T08:11:43;13.30;;;11.83;;
17586;SDS011;8912;52.336;17.172;2022-10-16T08:14:11;12.60;;;11.40;;
17586;SDS011;8912;52.336;17.172;2022-10-16T08:16:42;13.23;;;11.93;;
17586;SDS011;8912;52.336;17.172;2022-10-16T08:19:10;12.37;;;10.90;;
17586;SDS011;8912;52.336;17.172;2022-10-16T08:21:39;12.30;;;11.00;;
17586;SDS011;8912;52.336;17.172;2022-10-16T08:24:08;13.67;;;10.53;;
17586;SDS011;8912;52.336;17.172;2022-10-16T08:26:37;10.48;;;9.48;;
17586;SDS011;8912;52.336;17.172;2022-10-16T08:29:05;11.33;;;10.27;;
17586;SDS011;8912;52.336;17.172;2022-10-16T08:31:34;10.57;;;9.48;;
17586;SDS011;8912;52.336;17.172;2022-10-16T08:34:07;10.10;;;9.07;;
17586;SDS011;8912;52.336;17.172;2022-10-16T08:36:36;9.50;;;8.67;;
17586;SDS011;8912;52.336;17.172;2022-10-16T08:39:06;10.63;;;9.15;;
17586;SDS011;8912;52.336;17.172;2022-10-16T08:41:42;11.38;;;8.27;;
17586;SDS011;8912;52.336;17.172;2022-10-16T08:44:31;9.03;;;8.13;;
17586;SDS011;8912;52.336;17.172;2022-10-16T08:47:26;9.50;;;8.27;;
17586;SDS011;8912;52.336;17.172;2022-10-16T08:50:08;11.98;;;8.25;;
17586;SDS011;8912;52.336;17.172;2022-10-16T08:52:40;9.02;;;8.13;;
17586;SDS011;8912;52.336;17.172;2022-10-16T08:55:16;9.55;;;8.18;;
17586;SDS011;8912;52.336;17.172;2022-10-16T08:57:56;10.73;;;8.38;;
17586;SDS011;8912;52.336;17.172;2022-10-16T09:00:25;9.65;;;8.70;;
17586;SDS011;8912;52.336;17.172;2022-10-16T09:02:58;8.95;;;8.15;;
17586;SDS011;8912;52.336;17.172;2022-10-16T09:08:46;8.75;;;7.82;;
17586;SDS011;8912;52.336;17.172;2022-10-16T09:11:30;9.27;;;8.30;;
17586;SDS011;8912;52.336;17.172;2022-10-16T09:14:15;8.82;;;8.02;;
17586;SDS011;8912;52.336;17.172;2022-10-16T09:17:06;9.32;;;7.05;;
17586;SDS011;8912;52.336;17.172;2022-10-16T09:19:49;7.97;;;7.28;;
17586;SDS011;8912;52.336;17.172;2022-10-16T09:22:22;7.32;;;6.63;;
17586;SDS011;8912;52.336;17.172;2022-10-16T09:24:57;8.23;;;5.95;;
17586;SDS011;8912;52.336;17.172;2022-10-16T09:27:30;7.05;;;6.15;;
17586;SDS011;8912;52.336;17.172;2022-10-16T09:29:59;6.63;;;6.03;;
17586;SDS011;8912;52.336;17.172;2022-10-16T09:32:28;5.95;;;5.20;;
17586;SDS011;8912;52.336;17.172;2022-10-16T09:34:58;6.28;;;5.70;;
17586;SDS011;8912;52.336;17.172;2022-10-16T09:37:27;6.50;;;5.90;;
17586;SDS011;8912;52.336;17.172;2022-10-16T09:39:58;6.25;;;5.28;;
17586;SDS011;8912;52.336;17.172;2022-10-16T09:42:34;6.25;;;5.53;;
17586;SDS011;8912;52.336;17.172;2022-10-16T09:45:04;6.00;;;5.30;;
17586;SDS011;8912;52.336;17.172;2022-10-16T09:47:47;5.93;;;5.45;;
17586;SDS011;8912;52.336;17.172;2022-10-16T09:50:23;5.90;;;5.40;;
17586;SDS011;8912;52.336;17.172;2022-10-16T09:53:03;6.03;;;5.53;;
17586;SDS011;8912;52.336;17.172;2022-10-16T09:55:35;5.70;;;5.20;;
17586;SDS011;8912;52.336;17.172;2022-10-16T09:58:11;7.00;;;5.72;;
17586;SDS011;8912;52.336;17.172;2022-10-16T10:00:42;6.35;;;5.75;;
17586;SDS011;8912;52.336;17.172;2022-10-16T10:03:30;6.30;;;5.03;;
17586;SDS011;8912;52.336;17.172;2022-10-16T10:06:05;5.40;;;4.90;;
17586;SDS011;8912;52.336;17.172;2022-10-16T10:08:54;4.97;;;4.57;;
17586;SDS011;8912;52.336;17.172;2022-10-16T10:11:39;4.95;;;4.55;;
17586;SDS011;8912;52.336;17.172;2022-10-16T10:14:20;6.72;;;5.93;;
17586;SDS011;8912;52.336;17.172;2022-10-16T10:16:51;5.30;;;4.90;;
17586;SDS011;8912;52.336;17.172;2022-10-16T10:19:22;5.50;;;5.00;;
17586;SDS011;8912;52.336;17.172;2022-10-16T10:21:58;5.05;;;4.65;;
17586;SDS011;8912;52.336;17.172;2022-10-16T10:24:27;6.07;;;4.63;;
17586;SDS011;8912;52.336;17.172;2022-10-16T10:27:00;4.80;;;4.30;;
17586;SDS011;8912;52.336;17.172;2022-10-16T10:29:41;5.03;;;4.50;;
17586;SDS011;8912;52.336;17.172;2022-10-16T10:32:20;5.30;;;4.80;;
17586;SDS011;8912;52.336;17.172;2022-10-16T10:35:01;5.35;;;4.85;;
17586;SDS011;8912;52.336;17.172;2022-10-16T10:37:45;5.03;;;4.63;;
17586;SDS011;8912;52.336;17.172;2022-10-16T10:40:34;4.97;;;4.55;;
17586;SDS011;8912;52.336;17.172;2022-10-16T10:43:15;4.75;;;4.35;;
17586;SDS011;8912;52.336;17.172;2022-10-16T10:46:00;5.43;;;4.93;;
17586;SDS011;8912;52.336;17.172;2022-10-16T10:48:42;6.80;;;6.10;;
17586;SDS011;8912;52.336;17.172;2022-10-16T10:51:23;4.97;;;4.57;;
17586;SDS011;8912;52.336;17.172;2022-10-16T10:54:01;12.05;;;8.85;;
17586;SDS011;8912;52.336;17.172;2022-10-16T10:56:42;5.88;;;5.00;;
17586;SDS011;8912;52.336;17.172;2022-10-16T10:59:22;5.47;;;4.97;;
17586;SDS011;8912;52.336;17.172;2022-10-16T11:02:18;5.25;;;4.85;;
17586;SDS011;8912;52.336;17.172;2022-10-16T11:08:00;5.75;;;5.22;;
17586;SDS011;8912;52.336;17.172;2022-10-16T11:10:33;6.32;;;5.75;;
17586;SDS011;8912;52.336;17.172;2022-10-16T11:13:15;5.05;;;4.57;;
17586;SDS011;8912;52.336;17.172;2022-10-16T11:15:55;5.25;;;4.72;;
17586;SDS011;8912;52.336;17.172;2022-10-16T11:18:30;5.28;;;4.80;;
17586;SDS011;8912;52.336;17.172;2022-10-16T11:21:07;19.65;;;9.93;;
17586;SDS011;8912;52.336;17.172;2022-10-16T11:23:39;9.10;;;7.03;;
17586;SDS011;8912;52.336;17.172;2022-10-16T11:26:14;5.75;;;4.10;;
17586;SDS011;8912;52.336;17.172;2022-10-16T11:28:47;4.70;;;4.30;;
17586;SDS011;8912;52.336;17.172;2022-10-16T11:31:22;4.78;;;4.30;;
17586;SDS011;8912;52.336;17.172;2022-10-16T11:34:01;3.92;;;3.63;;
17586;SDS011;8912;52.336;17.172;2022-10-16T11:36:36;4.07;;;3.78;;
17586;SDS011;8912;52.336;17.172;2022-10-16T11:39:11;9.98;;;5.97;;
17586;SDS011;8912;52.336;17.172;2022-10-16T11:41:48;5.72;;;5.20;;
17586;SDS011;8912;52.336;17.172;2022-10-16T11:47:23;4.15;;;3.80;;
17586;SDS011;8912;52.336;17.172;2022-10-16T11:50:17;4.20;;;3.90;;
17586;SDS011;8912;52.336;17.172;2022-10-16T11:52:53;4.55;;;4.18;;
17586;SDS011;8912;52.336;17.172;2022-10-16T11:55:27;4.60;;;4.20;;
17586;SDS011;8912;52.336;17.172;2022-10-16T11:57:59;4.97;;;4.30;;
17586;SDS011;8912;52.336;17.172;2022-10-16T12:00:35;5.88;;;4.30;;
17586;SDS011;8912;52.336;17.172;2022-10-16T12:03:12;4.35;;;3.92;;
17586;SDS011;8912;52.336;17.172;2022-10-16T12:05:54;4.70;;;4.40;;
17586;SDS011;8912;52.336;17.172;2022-10-16T12:08:28;4.60;;;3.88;;
17586;SDS011;8912;52.336;17.172;2022-10-16T12:11:06;4.15;;;3.75;;
17586;SDS011;8912;52.336;17.172;2022-10-16T12:13:36;3.60;;;3.30;;
17586;SDS011;8912;52.336;17.172;2022-10-16T12:16:07;3.38;;;3.17;;
17586;SDS011;8912;52.336;17.172;2022-10-16T12:19:02;3.78;;;3.10;;
17586;SDS011;8912;52.336;17.172;2022-10-16T12:21:38;3.17;;;2.97;;
17586;SDS011;8912;52.336;17.172;2022-10-16T12:24:18;3.63;;;3.33;;
17586;SDS011;8912;52.336;17.172;2022-10-16T12:26:50;7.60;;;4.28;;
17586;SDS011;8912;52.336;17.172;2022-10-16T12:29:23;4.50;;;4.10;;
17586;SDS011;8912;52.336;17.172;2022-10-16T12:31:56;4.30;;;3.90;;
17586;SDS011;8912;52.336;17.172;2022-10-16T12:34:28;3.25;;;3.05;;
17586;SDS011;8912;52.336;17.172;2022-10-16T12:37:07;4.72;;;3.00;;
17586;SDS011;8912;52.336;17.172;2022-10-16T12:39:39;3.72;;;3.42;;
17586;SDS011;8912;52.336;17.172;2022-10-16T12:42:23;4.50;;;4.07;;
17586;SDS011;8912;52.336;17.172;2022-10-16T12:45:01;2.80;;;2.60;;
17586;SDS011;8912;52.336;17.172;2022-10-16T12:47:52;4.20;;;1.67;;
17586;SDS011;8912;52.336;17.172;2022-10-16T12:53:17;1.73;;;1.50;;
17586;SDS011;8912;52.336;17.172;2022-10-16T12:55:51;1.67;;;1.40;;
17586;SDS011;8912;52.336;17.172;2022-10-16T12:58:48;2.75;;;1.77;;
17586;SDS011;8912;52.336;17.172;2022-10-16T13:01:39;3.15;;;2.35;;
17586;SDS011;8912;52.336;17.172;2022-10-16T13:04:29;2.35;;;1.80;;
17586;SDS011;8912;52.336;17.172;2022-10-16T13:07:24;14.77;;;2.70;;
17586;SDS011;8912;52.336;17.172;2022-10-16T13:10:06;7.57;;;1.80;;
17586;SDS011;8912;52.336;17.172;2022-10-16T13:15:58;3.67;;;2.83;;
17586;SDS011;8912;52.336;17.172;2022-10-16T13:18:38;2.45;;;2.17;;
17586;SDS011;8912;52.336;17.172;2022-10-16T13:21:18;4.82;;;1.73;;
17586;SDS011;8912;52.336;17.172;2022-10-16T13:24:02;3.67;;;2.30;;
17586;SDS011;8912;52.336;17.172;2022-10-16T13:26:41;4.43;;;2.30;;
17586;SDS011;8912;52.336;17.172;2022-10-16T13:29:17;2.42;;;2.10;;
17586;SDS011;8912;52.336;17.172;2022-10-16T13:31:47;4.28;;;2.15;;
17586;SDS011;8912;52.336;17.172;2022-10-16T13:34:17;2.30;;;1.80;;
17586;SDS011;8912;52.336;17.172;2022-10-16T13:36:47;3.38;;;2.35;;
17586;SDS011;8912;52.336;17.172;2022-10-16T13:39:22;2.10;;;2.00;;
17586;SDS011;8912;52.336;17.172;2022-10-16T13:42:03;2.28;;;2.13;;
17586;SDS011;8912;52.336;17.172;2022-10-16T13:44:36;2.90;;;2.45;;
17586;SDS011;8912;52.336;17.172;2022-10-16T13:47:15;5.07;;;2.58;;
17586;SDS011;8912;52.336;17.172;2022-10-16T13:49:46;2.50;;;2.30;;
17586;SDS011;8912;52.336;17.172;2022-10-16T13:52:16;2.47;;;2.28;;
17586;SDS011;8912;52.336;17.172;2022-10-16T13:54:51;2.42;;;2.22;;
17586;SDS011;8912;52.336;17.172;2022-10-16T13:57:27;2.22;;;2.13;;
17586;SDS011;8912;52.336;17.172;2022-10-16T13:59:57;2.50;;;2.30;;
17586;SDS011;8912;52.336;17.172;2022-10-16T14:02:26;2.78;;;2.50;;
17586;SDS011;8912;52.336;17.172;2022-10-16T14:05:01;2.60;;;2.40;;
17586;SDS011;8912;52.336;17.172;2022-10-16T14:07:32;4.38;;;3.30;;
17586;SDS011;8912;52.336;17.172;2022-10-16T14:10:05;4.63;;;4.30;;
17586;SDS011;8912;52.336;17.172;2022-10-16T14:12:35;2.35;;;2.15;;
17586;SDS011;8912;52.336;17.172;2022-10-16T14:15:04;2.47;;;2.28;;
17586;SDS011;8912;52.336;17.172;2022-10-16T14:17:44;4.38;;;4.03;;
17586;SDS011;8912;52.336;17.172;2022-10-16T14:20:16;3.28;;;2.50;;
17586;SDS011;8912;52.336;17.172;2022-10-16T14:22:46;4.57;;;4.18;;
17586;SDS011;8912;52.336;17.172;2022-10-16T14:25:25;2.55;;;2.35;;
17586;SDS011;8912;52.336;17.172;2022-10-16T14:27:56;7.05;;;2.60;;
17586;SDS011;8912;52.336;17.172;2022-10-16T14:30:32;3.08;;;2.88;;
17586;SDS011;8912;52.336;17.172;2022-10-16T14:33:03;3.15;;;2.78;;
17586;SDS011;8912;52.336;17.172;2022-10-16T14:35:33;2.80;;;2.60;;
17586;SDS011;8912;52.336;17.172;2022-10-16T14:38:04;3.00;;;2.70;;
17586;SDS011;8912;52.336;17.172;2022-10-16T14:40:47;2.88;;;2.60;;
17586;SDS011;8912;52.336;17.172;2022-10-16T14:43:19;4.00;;;3.47;;
17586;SDS011;8912;52.336;17.172;2022-10-16T14:45:50;3.25;;;3.05;;
17586;SDS011;8912;52.336;17.172;2022-10-16T14:48:22;4.07;;;2.67;;
17586;SDS011;8912;52.336;17.172;2022-10-16T14:50:51;3.03;;;2.72;;
17586;SDS011;8912;52.336;17.172;2022-10-16T14:53:20;3.00;;;2.80;;
17586;SDS011;8912;52.336;17.172;2022-10-16T14:55:51;4.15;;;2.78;;
17586;SDS011;8912;52.336;17.172;2022-10-16T14:58:21;4.43;;;2.90;;
17586;SDS011;8912;52.336;17.172;2022-10-16T15:00:52;5.28;;;4.78;;
17586;SDS011;8912;52.336;17.172;2022-10-16T15:03:21;5.57;;;3.92;;
17586;SDS011;8912;52.336;17.172;2022-10-16T15:05:50;3.45;;;3.15;;
17586;SDS011;8912;52.336;17.172;2022-10-16T15:08:18;4.07;;;3.08;;
17586;SDS011;8912;52.336;17.172;2022-10-16T15:10:47;4.40;;;3.50;;
17586;SDS011;8912;52.336;17.172;2022-10-16T15:13:17;3.03;;;2.83;;
17586;SDS011;8912;52.336;17.172;2022-10-16T15:15:46;2.90;;;2.70;;
17586;SDS011;8912;52.336;17.172;2022-10-16T15:18:16;3.13;;;2.83;;
17586;SDS011;8912;52.336;17.172;2022-10-16T15:20:47;3.22;;;2.92;;
17586;SDS011;8912;52.336;17.172;2022-10-16T15:23:18;3.33;;;2.65;;
17586;SDS011;8912;52.336;17.172;2022-10-16T15:25:48;3.65;;;3.35;;